createdAt,value
2018-11-23T00:00:40.790Z,0
2018-11-23T00:01:40.723Z,0
2018-11-23T00:02:40.704Z,0
2018-11-23T00:03:40.943Z,0
2018-11-23T00:04:40.909Z,0
2018-11-23T00:05:40.631Z,0
2018-11-23T00:06:40.855Z,0
2018-11-23T00:07:40.589Z,0
2018-11-23T00:08:40.558Z,0
2018-11-23T00:09:40.541Z,0
2018-11-23T00:10:40.250Z,0
2018-11-23T00:11:40.491Z,0
2018-11-23T00:12:40.218Z,0
2018-11-23T00:13:40.445Z,0
2018-11-23T00:14:40.171Z,0
2018-11-23T00:15:40.395Z,0
2018-11-23T00:16:40.121Z,0
2018-11-23T00:17:40.376Z,0
2018-11-23T00:18:40.329Z,0
2018-11-23T00:19:40.051Z,0
2018-11-23T00:20:40.292Z,0
2018-11-23T00:21:40.301Z,0
2018-11-23T00:22:40.499Z,0
2018-11-23T00:23:39.960Z,0
2018-11-23T00:24:39.976Z,0
2018-11-23T00:25:40.170Z,0
2018-11-23T00:26:40.146Z,0
2018-11-23T00:27:39.890Z,0
2018-11-23T00:28:40.356Z,0
2018-11-23T00:29:40.082Z,0
2018-11-23T00:30:40.055Z,0
2018-11-23T00:31:39.777Z,0
2018-11-23T00:32:40.005Z,0
2018-11-23T00:33:39.751Z,0
2018-11-23T00:34:39.966Z,0
2018-11-23T00:35:39.937Z,0
2018-11-23T00:36:40.195Z,0
2018-11-23T00:37:39.914Z,0
2018-11-23T00:38:39.875Z,0
2018-11-23T00:39:40.107Z,0
2018-11-23T00:40:39.569Z,0
2018-11-23T00:41:39.551Z,0
2018-11-23T00:42:40.035Z,0
2018-11-23T00:43:39.495Z,0
2018-11-23T00:44:39.986Z,0
2018-11-23T00:45:45.109Z,0
2018-11-23T00:46:39.683Z,0
2018-11-23T00:47:39.692Z,0
2018-11-23T00:48:39.648Z,0
2018-11-23T00:49:39.886Z,0
2018-11-23T00:50:39.601Z,0
2018-11-23T00:51:39.573Z,0
2018-11-23T00:52:39.547Z,0
2018-11-23T00:53:39.267Z,0
2018-11-23T00:54:39.500Z,0
2018-11-23T00:55:38.973Z,0
2018-11-23T00:56:39.201Z,0
2018-11-23T00:57:39.688Z,0
2018-11-23T00:58:39.658Z,0
2018-11-23T00:59:39.419Z,0
2018-11-23T01:00:39.361Z,0
2018-11-23T01:01:39.078Z,0
2018-11-23T01:02:39.568Z,0
2018-11-23T01:03:39.555Z,0
2018-11-23T01:04:39.020Z,0
2018-11-23T01:05:39.257Z,0
2018-11-23T01:06:38.972Z,0
2018-11-23T01:07:39.460Z,0
2018-11-23T01:08:39.643Z,0
2018-11-23T01:09:39.415Z,0
2018-11-23T01:10:38.870Z,0
2018-11-23T01:11:39.111Z,0
2018-11-23T01:12:39.081Z,0
2018-11-23T01:13:38.810Z,0
2018-11-23T01:14:39.049Z,0
2018-11-23T01:15:39.274Z,0
2018-11-23T01:16:38.751Z,0
2018-11-23T01:17:39.221Z,0
2018-11-23T01:18:38.947Z,0
2018-11-23T01:19:38.921Z,0
2018-11-23T01:20:38.953Z,0
2018-11-23T01:21:38.389Z,0
2018-11-23T01:22:39.107Z,0
2018-11-23T01:23:38.599Z,0
2018-11-23T01:24:38.554Z,0
2018-11-23T01:25:38.530Z,0
2018-11-23T01:26:38.503Z,0
2018-11-23T01:27:38.738Z,0
2018-11-23T01:28:38.727Z,0
2018-11-23T01:29:38.448Z,0
2018-11-23T01:30:38.971Z,0
2018-11-23T01:31:38.904Z,0
2018-11-23T01:32:38.631Z,0
2018-11-23T01:33:38.873Z,0
2018-11-23T01:34:38.324Z,0
2018-11-23T01:35:38.836Z,0
2018-11-23T01:36:38.781Z,0
2018-11-23T01:37:38.275Z,0
2018-11-23T01:38:38.738Z,0
2018-11-23T01:39:38.720Z,0
2018-11-23T01:40:38.765Z,0
2018-11-23T01:41:38.701Z,0
2018-11-23T01:42:38.392Z,0
2018-11-23T01:43:38.621Z,0
2018-11-23T01:44:38.092Z,0
2018-11-23T01:45:38.063Z,0
2018-11-23T01:46:38.324Z,0
2018-11-23T01:47:38.277Z,0
2018-11-23T01:48:38.000Z,0
2018-11-23T01:49:38.479Z,0
2018-11-23T01:50:38.211Z,0
2018-11-23T01:51:37.926Z,0
2018-11-23T01:52:38.220Z,0
2018-11-23T01:53:38.184Z,0
2018-11-23T01:54:38.111Z,0
2018-11-23T01:55:38.084Z,0
2018-11-23T01:56:38.080Z,0
2018-11-23T01:57:38.035Z,0
2018-11-23T01:58:38.025Z,0
2018-11-23T01:59:38.251Z,0
2018-11-23T02:00:37.965Z,0
2018-11-23T02:01:37.954Z,0
2018-11-23T02:02:38.181Z,0
2018-11-23T02:03:37.397Z,0
2018-11-23T02:04:38.134Z,0
2018-11-23T02:05:37.629Z,0
2018-11-23T02:06:37.834Z,0
2018-11-23T02:07:37.812Z,0
2018-11-23T02:08:37.796Z,0
2018-11-23T02:09:37.510Z,0
2018-11-23T02:10:37.740Z,0
2018-11-23T02:11:38.063Z,0
2018-11-23T02:12:37.444Z,0
2018-11-23T02:13:37.928Z,0
2018-11-23T02:14:37.399Z,0
2018-11-23T02:15:37.882Z,0
2018-11-23T02:16:37.347Z,0
2018-11-23T02:17:37.330Z,0
2018-11-23T02:18:37.558Z,0
2018-11-23T02:19:37.533Z,0
2018-11-23T02:20:37.513Z,0
2018-11-23T02:21:37.486Z,0
2018-11-23T02:22:37.211Z,0
2018-11-23T02:23:37.440Z,0
2018-11-23T02:24:37.669Z,0
2018-11-23T02:25:37.640Z,0
2018-11-23T02:26:37.365Z,0
2018-11-23T02:27:37.600Z,0
2018-11-23T02:28:37.111Z,0
2018-11-23T02:29:37.299Z,0
2018-11-23T02:30:37.280Z,0
2018-11-23T02:31:37.547Z,0
2018-11-23T02:32:37.475Z,0
2018-11-23T02:33:36.700Z,0
2018-11-23T02:34:36.970Z,0
2018-11-23T02:35:37.409Z,0
2018-11-23T02:36:36.877Z,0
2018-11-23T02:37:37.119Z,0
2018-11-23T02:38:37.352Z,0
2018-11-23T02:39:37.319Z,0
2018-11-23T02:40:37.039Z,0
2018-11-23T02:41:37.022Z,0
2018-11-23T02:42:37.007Z,0
2018-11-23T02:43:37.224Z,0
2018-11-23T02:44:36.706Z,0
2018-11-23T02:45:36.662Z,0
2018-11-23T02:46:36.646Z,0
2018-11-23T02:47:37.133Z,0
2018-11-23T02:48:36.853Z,0
2018-11-23T02:49:36.579Z,0
2018-11-23T02:50:36.632Z,0
2018-11-23T02:51:36.566Z,0
2018-11-23T02:52:36.508Z,0
2018-11-23T02:53:36.739Z,0
2018-11-23T02:54:36.461Z,0
2018-11-23T02:55:37.001Z,0
2018-11-23T02:56:36.664Z,0
2018-11-23T02:57:36.662Z,0
2018-11-23T02:58:36.623Z,0
2018-11-23T02:59:36.592Z,0
2018-11-23T03:00:36.838Z,0
2018-11-23T03:01:36.801Z,0
2018-11-23T03:02:36.273Z,0
2018-11-23T03:03:36.770Z,0
2018-11-23T03:04:36.480Z,0
2018-11-23T03:05:36.716Z,0
2018-11-23T03:06:36.698Z,0
2018-11-23T03:07:36.673Z,0
2018-11-23T03:08:36.343Z,0
2018-11-23T03:09:36.627Z,0
2018-11-23T03:10:36.349Z,0
2018-11-23T03:11:36.334Z,0
2018-11-23T03:12:36.553Z,0
2018-11-23T03:13:36.272Z,0
2018-11-23T03:14:36.250Z,0
2018-11-23T03:15:36.225Z,0
2018-11-23T03:16:36.454Z,0
2018-11-23T03:17:35.928Z,0
2018-11-23T03:18:36.440Z,0
2018-11-23T03:19:36.381Z,0
2018-11-23T03:20:36.361Z,0
2018-11-23T03:21:35.828Z,0
2018-11-23T03:22:36.063Z,0
2018-11-23T03:23:36.047Z,0
2018-11-23T03:24:36.019Z,0
2018-11-23T03:25:36.236Z,0
2018-11-23T03:26:36.221Z,0
2018-11-23T03:27:36.193Z,0
2018-11-23T03:28:35.924Z,0
2018-11-23T03:29:35.895Z,0
2018-11-23T03:30:36.131Z,0
2018-11-23T03:31:35.848Z,0
2018-11-23T03:32:35.855Z,0
2018-11-23T03:33:35.802Z,0
2018-11-23T03:34:35.780Z,0
2018-11-23T03:35:36.012Z,0
2018-11-23T03:36:35.742Z,0
2018-11-23T03:37:35.967Z,0
2018-11-23T03:38:35.687Z,0
2018-11-23T03:39:41.358Z,0
2018-11-23T03:40:35.632Z,0
2018-11-23T03:41:35.864Z,0
2018-11-23T03:42:35.334Z,0
2018-11-23T03:43:35.816Z,0
2018-11-23T03:44:35.800Z,0
2018-11-23T03:45:35.020Z,0
2018-11-23T03:46:35.754Z,0
2018-11-23T03:47:35.212Z,0
2018-11-23T03:48:35.453Z,0
2018-11-23T03:49:35.433Z,0
2018-11-23T03:50:35.668Z,0
2018-11-23T03:51:35.393Z,0
2018-11-23T03:52:35.107Z,0
2018-11-23T03:53:35.081Z,0
2018-11-23T03:54:35.326Z,0
2018-11-23T03:55:35.286Z,0
2018-11-23T03:56:35.011Z,0
2018-11-23T03:57:35.497Z,0
2018-11-23T03:58:35.482Z,0
2018-11-23T03:59:35.205Z,0
2018-11-23T04:00:35.172Z,0
2018-11-23T04:01:35.144Z,0
2018-11-23T04:02:35.127Z,0
2018-11-23T04:03:35.351Z,0
2018-11-23T04:04:35.328Z,0
2018-11-23T04:05:35.063Z,0
2018-11-23T04:06:35.296Z,0
2018-11-23T04:07:35.261Z,0
2018-11-23T04:08:34.488Z,0
2018-11-23T04:09:34.715Z,0
2018-11-23T04:10:34.940Z,0
2018-11-23T04:11:35.167Z,0
2018-11-23T04:12:34.632Z,0
2018-11-23T04:13:34.861Z,0
2018-11-23T04:14:35.102Z,0
2018-11-23T04:15:34.835Z,0
2018-11-23T04:16:34.813Z,0
2018-11-23T04:17:35.031Z,0
2018-11-23T04:18:34.752Z,0
2018-11-23T04:19:34.977Z,0
2018-11-23T04:20:34.958Z,0
2018-11-23T04:21:34.930Z,0
2018-11-23T04:22:34.404Z,0
2018-11-23T04:23:34.634Z,0
2018-11-23T04:24:34.605Z,0
2018-11-23T04:25:34.849Z,0
2018-11-23T04:26:34.562Z,0
2018-11-23T04:27:34.791Z,0
2018-11-23T04:28:34.772Z,0
2018-11-23T04:29:34.494Z,0
2018-11-23T04:30:34.470Z,0
2018-11-23T04:31:34.206Z,0
2018-11-23T04:32:34.678Z,0
2018-11-23T04:33:34.143Z,0
2018-11-23T04:34:34.651Z,0
2018-11-23T04:35:34.352Z,0
2018-11-23T04:36:34.576Z,0
2018-11-23T04:37:34.616Z,0
2018-11-23T04:38:34.273Z,0
2018-11-23T04:39:33.765Z,0
2018-11-23T04:40:34.236Z,0
2018-11-23T04:41:33.964Z,0
2018-11-23T04:42:34.184Z,0
2018-11-23T04:43:33.905Z,0
2018-11-23T04:44:33.637Z,0
2018-11-23T04:45:34.383Z,0
2018-11-23T04:46:34.104Z,0
2018-11-23T04:47:34.349Z,0
2018-11-23T04:48:34.291Z,0
2018-11-23T04:49:34.269Z,0
2018-11-23T04:50:33.997Z,0
2018-11-23T04:51:33.968Z,0
2018-11-23T04:52:34.208Z,0
2018-11-23T04:53:34.184Z,0
2018-11-23T04:54:33.900Z,0
2018-11-23T04:55:33.616Z,0
2018-11-23T04:56:33.617Z,0
2018-11-23T04:57:34.087Z,0
2018-11-23T04:58:33.819Z,0
2018-11-23T04:59:34.047Z,0
2018-11-23T05:00:33.515Z,0
2018-11-23T05:01:33.740Z,0
2018-11-23T05:02:33.479Z,0
2018-11-23T05:03:34.896Z,0
2018-11-23T05:04:33.915Z,0
2018-11-23T05:05:33.886Z,0
2018-11-23T05:06:33.397Z,0
2018-11-23T05:07:33.597Z,0
2018-11-23T05:08:48.625Z,0
2018-11-23T05:09:33.808Z,0
2018-11-23T05:10:33.524Z,0
2018-11-23T05:11:33.501Z,0
2018-11-23T05:12:33.738Z,0
2018-11-23T05:13:33.519Z,0
2018-11-23T05:14:33.684Z,0
2018-11-23T05:15:33.161Z,0
2018-11-23T05:16:33.633Z,0
2018-11-23T05:17:33.368Z,0
2018-11-23T05:18:33.128Z,0
2018-11-23T05:19:33.320Z,0
2018-11-23T05:20:33.290Z,0
2018-11-23T05:21:33.519Z,0
2018-11-23T05:22:33.253Z,0
2018-11-23T05:23:33.497Z,0
2018-11-23T05:24:33.193Z,0
2018-11-23T05:25:32.912Z,0
2018-11-23T05:26:33.399Z,0
2018-11-23T05:27:32.863Z,0
2018-11-23T05:28:33.091Z,0
2018-11-23T05:29:33.330Z,0
2018-11-23T05:30:33.070Z,0
2018-11-23T05:31:33.050Z,0
2018-11-23T05:32:32.745Z,0
2018-11-23T05:33:32.981Z,0
2018-11-23T05:34:33.256Z,0
2018-11-23T05:35:32.737Z,0
2018-11-23T05:36:32.917Z,0
2018-11-23T05:37:32.637Z,0
2018-11-23T05:38:33.116Z,0
2018-11-23T05:39:32.583Z,0
2018-11-23T05:40:32.831Z,0
2018-11-23T05:41:32.794Z,0
2018-11-23T05:42:32.768Z,0
2018-11-23T05:43:32.243Z,0
2018-11-23T05:44:32.478Z,0
2018-11-23T05:45:32.458Z,0
2018-11-23T05:46:32.928Z,0
2018-11-23T05:47:32.393Z,0
2018-11-23T05:48:33.999Z,0
2018-11-23T05:49:32.349Z,0
2018-11-23T05:50:32.579Z,0
2018-11-23T05:51:32.830Z,0
2018-11-23T05:52:32.278Z,0
2018-11-23T05:53:32.504Z,0
2018-11-23T05:54:32.756Z,0
2018-11-23T05:55:32.219Z,0
2018-11-23T05:56:32.435Z,0
2018-11-23T05:57:32.416Z,0
2018-11-23T05:58:32.433Z,0
2018-11-23T05:59:32.624Z,0
2018-11-23T06:00:32.346Z,0
2018-11-23T06:01:32.323Z,0
2018-11-23T06:02:32.307Z,0
2018-11-23T06:03:32.277Z,0
2018-11-23T06:04:32.510Z,0
2018-11-23T06:05:32.480Z,0
2018-11-23T06:06:32.948Z,0
2018-11-23T06:07:32.194Z,0
2018-11-23T06:08:32.410Z,0
2018-11-23T06:09:31.896Z,0
2018-11-23T06:10:32.134Z,0
2018-11-23T06:11:32.346Z,0
2018-11-23T06:12:31.808Z,0
2018-11-23T06:13:32.300Z,0
2018-11-23T06:14:32.022Z,0
2018-11-23T06:15:31.992Z,0
2018-11-23T06:16:32.226Z,0
2018-11-23T06:17:31.946Z,0
2018-11-23T06:18:31.925Z,0
2018-11-23T06:19:32.165Z,0
2018-11-23T06:20:31.878Z,0
2018-11-23T06:21:31.848Z,0
2018-11-23T06:22:31.348Z,0
2018-11-23T06:23:32.054Z,0
2018-11-23T06:24:38.709Z,0
2018-11-23T06:25:32.031Z,0
2018-11-23T06:26:31.988Z,4
2018-11-23T06:27:31.462Z,0
2018-11-23T06:28:31.692Z,0
2018-11-23T06:29:31.664Z,4
2018-11-23T06:30:31.657Z,0
2018-11-23T06:31:31.882Z,4
2018-11-23T06:32:31.597Z,4
2018-11-23T06:33:31.636Z,8
2018-11-23T06:34:31.287Z,8
2018-11-23T06:35:31.529Z,8
2018-11-23T06:36:31.748Z,8
2018-11-23T06:37:31.221Z,12
2018-11-23T06:38:31.450Z,12
2018-11-23T06:39:31.427Z,12
2018-11-23T06:40:31.402Z,16
2018-11-23T06:41:31.133Z,20
2018-11-23T06:42:31.108Z,24
2018-11-23T06:43:31.330Z,28
2018-11-23T06:44:31.556Z,28
2018-11-23T06:45:31.537Z,32
2018-11-23T06:46:31.519Z,36
2018-11-23T06:47:31.245Z,44
2018-11-23T06:48:31.230Z,48
2018-11-23T06:49:31.449Z,56
2018-11-23T06:50:31.186Z,60
2018-11-23T06:51:30.895Z,68
2018-11-23T06:52:30.884Z,76
2018-11-23T06:53:31.359Z,84
2018-11-23T06:54:30.569Z,92
2018-11-23T06:55:31.359Z,104
2018-11-23T06:56:31.028Z,112
2018-11-23T06:57:30.753Z,120
2018-11-23T06:58:31.260Z,136
2018-11-23T06:59:30.761Z,148
2018-11-23T07:00:31.219Z,160
2018-11-23T07:01:30.657Z,172
2018-11-23T07:02:30.912Z,188
2018-11-23T07:03:30.613Z,200
2018-11-23T07:04:31.119Z,216
2018-11-23T07:05:30.317Z,232
2018-11-23T07:06:30.548Z,248
2018-11-23T07:07:31.035Z,264
2018-11-23T07:08:30.768Z,284
2018-11-23T07:09:30.733Z,304
2018-11-23T07:10:30.448Z,320
2018-11-23T07:11:30.674Z,340
2018-11-23T07:12:30.903Z,360
2018-11-23T07:13:30.639Z,380
2018-11-23T07:14:30.877Z,400
2018-11-23T07:15:30.589Z,420
2018-11-23T07:16:30.569Z,444
2018-11-23T07:17:30.536Z,464
2018-11-23T07:18:30.523Z,488
2018-11-23T07:19:30.507Z,512
2018-11-23T07:20:30.470Z,536
2018-11-23T07:21:30.187Z,560
2018-11-23T07:22:30.157Z,580
2018-11-23T07:23:30.137Z,600
2018-11-23T07:24:30.366Z,624
2018-11-23T07:25:30.362Z,648
2018-11-23T07:26:30.332Z,676
2018-11-23T07:27:29.783Z,696
2018-11-23T07:28:30.305Z,724
2018-11-23T07:29:30.007Z,748
2018-11-23T07:30:29.981Z,772
2018-11-23T07:31:30.462Z,796
2018-11-23T07:32:30.445Z,820
2018-11-23T07:33:30.421Z,848
2018-11-23T07:34:30.401Z,876
2018-11-23T07:35:30.370Z,904
2018-11-23T07:36:30.145Z,924
2018-11-23T07:37:30.077Z,948
2018-11-23T07:38:30.057Z,972
2018-11-23T07:39:30.274Z,996
2018-11-23T07:40:29.747Z,1020
2018-11-23T07:41:29.979Z,1044
2018-11-23T07:42:29.959Z,1072
2018-11-23T07:43:29.976Z,1096
2018-11-23T07:44:29.644Z,1120
2018-11-23T07:45:29.879Z,1148
2018-11-23T07:46:30.108Z,1168
2018-11-23T07:47:29.583Z,1192
2018-11-23T07:48:30.076Z,1212
2018-11-23T07:49:30.046Z,1228
2018-11-23T07:50:30.017Z,1248
2018-11-23T07:51:29.483Z,1268
2018-11-23T07:52:29.722Z,1288
2018-11-23T07:53:29.948Z,1316
2018-11-23T07:54:29.672Z,1336
2018-11-23T07:55:29.912Z,1360
2018-11-23T07:56:29.626Z,1380
2018-11-23T07:57:29.866Z,1396
2018-11-23T07:58:29.567Z,1416
2018-11-23T07:59:29.561Z,1440
2018-11-23T08:00:29.574Z,1464
2018-11-23T08:01:29.265Z,1484
2018-11-23T08:02:29.756Z,1508
2018-11-23T08:03:29.720Z,1528
2018-11-23T08:04:29.700Z,1552
2018-11-23T08:05:29.428Z,1568
2018-11-23T08:06:29.653Z,1592
2018-11-23T08:07:29.629Z,1624
2018-11-23T08:08:29.349Z,1652
2018-11-23T08:09:29.578Z,1672
2018-11-23T08:10:29.573Z,1700
2018-11-23T08:11:29.537Z,1732
2018-11-23T08:12:29.269Z,1756
2018-11-23T08:13:29.488Z,1780
2018-11-23T08:14:29.209Z,1792
2018-11-23T08:15:29.441Z,1820
2018-11-23T08:16:29.161Z,1848
2018-11-23T08:17:29.143Z,1864
2018-11-23T08:18:29.378Z,1872
2018-11-23T08:19:28.585Z,1884
2018-11-23T08:20:28.821Z,1912
2018-11-23T08:21:29.055Z,1940
2018-11-23T08:22:29.026Z,1960
2018-11-23T08:23:29.250Z,1984
2018-11-23T08:24:29.645Z,2012
2018-11-23T08:25:28.963Z,2040
2018-11-23T08:26:29.179Z,2072
2018-11-23T08:27:28.912Z,2100
2018-11-23T08:28:29.144Z,2124
2018-11-23T08:29:28.869Z,2156
2018-11-23T08:30:28.594Z,2164
2018-11-23T08:31:29.071Z,2172
2018-11-23T08:32:28.540Z,2192
2018-11-23T08:33:28.776Z,2204
2018-11-23T08:34:28.499Z,2220
2018-11-23T08:35:28.483Z,2232
2018-11-23T08:36:29.025Z,2252
2018-11-23T08:37:28.709Z,2276
2018-11-23T08:38:28.653Z,2288
2018-11-23T08:39:28.906Z,2304
2018-11-23T08:40:28.882Z,2324
2018-11-23T08:41:28.589Z,2336
2018-11-23T08:42:28.826Z,2340
2018-11-23T08:43:28.811Z,2360
2018-11-23T08:44:28.521Z,2372
2018-11-23T08:45:28.797Z,2392
2018-11-23T08:46:28.752Z,2408
2018-11-23T08:47:28.196Z,2428
2018-11-23T08:48:28.680Z,2444
2018-11-23T08:49:28.148Z,2464
2018-11-23T08:50:28.404Z,2500
2018-11-23T08:51:28.369Z,2512
2018-11-23T08:52:28.597Z,2528
2018-11-23T08:53:34.477Z,2544
2018-11-23T08:54:28.575Z,2560
2018-11-23T08:55:28.272Z,2568
2018-11-23T08:56:27.993Z,2572
2018-11-23T08:57:28.231Z,2584
2018-11-23T08:58:28.466Z,2600
2018-11-23T08:59:28.195Z,2616
2018-11-23T09:00:27.927Z,2632
2018-11-23T09:01:28.139Z,2644
2018-11-23T09:02:28.383Z,2664
2018-11-23T09:03:28.097Z,2684
2018-11-23T09:04:28.069Z,2688
2018-11-23T09:05:27.802Z,2708
2018-11-23T09:06:28.114Z,2744
2018-11-23T09:07:28.253Z,2800
2018-11-23T09:08:28.239Z,2848
2018-11-23T09:09:28.166Z,2876
2018-11-23T09:10:27.972Z,2892
2018-11-23T09:11:27.662Z,2904
2018-11-23T09:12:27.645Z,2932
2018-11-23T09:13:28.045Z,2984
2018-11-23T09:14:27.854Z,3048
2018-11-23T09:15:27.346Z,3108
2018-11-23T09:16:27.817Z,3172
2018-11-23T09:17:28.037Z,3260
2018-11-23T09:18:27.766Z,3340
2018-11-23T09:19:27.746Z,3908
2018-11-23T09:20:27.975Z,5496
2018-11-23T09:21:27.451Z,6100
2018-11-23T09:22:30.538Z,4660
2018-11-23T09:23:27.659Z,3640
2018-11-23T09:24:27.704Z,4364
2018-11-23T09:25:27.868Z,5580
2018-11-23T09:26:27.589Z,5604
2018-11-23T09:27:27.316Z,5508
2018-11-23T09:28:27.809Z,4656
2018-11-23T09:29:28.836Z,3720
2018-11-23T09:30:27.500Z,3672
2018-11-23T09:31:27.485Z,3624
2018-11-23T09:32:27.717Z,3604
2018-11-23T09:33:27.443Z,3580
2018-11-23T09:34:27.173Z,3584
2018-11-23T09:35:27.211Z,3716
2018-11-23T09:36:27.651Z,4544
2018-11-23T09:37:27.357Z,6352
2018-11-23T09:38:27.346Z,7104
2018-11-23T09:39:27.574Z,7484
2018-11-23T09:40:27.114Z,6984
2018-11-23T09:41:27.293Z,5680
2018-11-23T09:42:27.290Z,4776
2018-11-23T09:43:27.493Z,4540
2018-11-23T09:44:27.268Z,4220
2018-11-23T09:45:26.971Z,4256
2018-11-23T09:46:27.437Z,4304
2018-11-23T09:47:27.160Z,4528
2018-11-23T09:48:27.390Z,5208
2018-11-23T09:49:27.067Z,6140
2018-11-23T09:50:27.362Z,7024
2018-11-23T09:51:27.157Z,6268
2018-11-23T09:52:27.314Z,6332
2018-11-23T09:53:26.805Z,6740
2018-11-23T09:54:27.276Z,7440
2018-11-23T09:55:27.261Z,9140
2018-11-23T09:56:26.993Z,8888
2018-11-23T09:57:27.243Z,8144
2018-11-23T09:58:26.945Z,8192
2018-11-23T09:59:27.181Z,8132
2018-11-23T10:00:27.177Z,7768
2018-11-23T10:01:26.901Z,7824
2018-11-23T10:02:26.623Z,6792
2018-11-23T10:03:27.166Z,6432
2018-11-23T10:04:27.250Z,7312
2018-11-23T10:05:26.829Z,9700
2018-11-23T10:06:26.548Z,9468
2018-11-23T10:07:26.792Z,8864
2018-11-23T10:08:26.774Z,9656
2018-11-23T10:09:26.499Z,9740
2018-11-23T10:10:26.741Z,9660
2018-11-23T10:11:27.033Z,10244
2018-11-23T10:12:26.704Z,9700
2018-11-23T10:13:26.682Z,8716
2018-11-23T10:14:26.412Z,6376
2018-11-23T10:15:26.907Z,5156
2018-11-23T10:16:26.683Z,4440
2018-11-23T10:17:26.370Z,3924
2018-11-23T10:18:26.603Z,4188
2018-11-23T10:19:26.850Z,4900
2018-11-23T10:20:26.896Z,4980
2018-11-23T10:21:26.862Z,5408
2018-11-23T10:22:26.543Z,10392
2018-11-23T10:23:26.278Z,11200
2018-11-23T10:24:26.561Z,12376
2018-11-23T10:25:26.510Z,11056
2018-11-23T10:26:26.479Z,10536
2018-11-23T10:27:26.225Z,7328
2018-11-23T10:28:26.705Z,4804
2018-11-23T10:29:26.423Z,8476
2018-11-23T10:30:26.175Z,7940
2018-11-23T10:31:26.680Z,9556
2018-11-23T10:32:26.374Z,9920
2018-11-23T10:33:30.628Z,6768
2018-11-23T10:34:26.350Z,7684
2018-11-23T10:35:26.589Z,9120
2018-11-23T10:36:26.324Z,8716
2018-11-23T10:37:26.557Z,9108
2018-11-23T10:38:26.295Z,10296
2018-11-23T10:39:26.300Z,9172
2018-11-23T10:40:26.001Z,10664
2018-11-23T10:41:26.508Z,12000
2018-11-23T10:42:26.562Z,11600
2018-11-23T10:43:25.725Z,10684
2018-11-23T10:44:26.451Z,9192
2018-11-23T10:45:26.181Z,9816
2018-11-23T10:46:26.434Z,11024
2018-11-23T10:47:26.427Z,10164
2018-11-23T10:48:26.138Z,10232
2018-11-23T10:49:26.381Z,10764
2018-11-23T10:50:26.358Z,11500
2018-11-23T10:51:26.106Z,11940
2018-11-23T10:52:26.484Z,11664
2018-11-23T10:53:26.311Z,12968
2018-11-23T10:54:25.795Z,14944
2018-11-23T10:55:25.782Z,13224
2018-11-23T10:56:26.285Z,11436
2018-11-23T10:57:26.005Z,10972
2018-11-23T10:58:26.259Z,10112
2018-11-23T10:59:25.721Z,10960
2018-11-23T11:00:25.979Z,12948
2018-11-23T11:01:25.956Z,13748
2018-11-23T11:02:25.977Z,13528
2018-11-23T11:03:25.678Z,11936
2018-11-23T11:04:25.662Z,9892
2018-11-23T11:05:25.907Z,9488
2018-11-23T11:06:26.162Z,10736
2018-11-23T11:07:25.628Z,12512
2018-11-23T11:08:26.116Z,11488
2018-11-23T11:09:26.310Z,11396
2018-11-23T11:10:25.608Z,13100
2018-11-23T11:11:25.860Z,13480
2018-11-23T11:12:26.099Z,12872
2018-11-23T11:13:25.818Z,12032
2018-11-23T11:14:25.798Z,12468
2018-11-23T11:15:25.779Z,13156
2018-11-23T11:16:25.517Z,14752
2018-11-23T11:17:25.752Z,15132
2018-11-23T11:18:25.992Z,14904
2018-11-23T11:19:25.743Z,15568
2018-11-23T11:20:25.465Z,17024
2018-11-23T11:21:25.706Z,15856
2018-11-23T11:22:25.690Z,14532
2018-11-23T11:23:25.685Z,16480
2018-11-23T11:24:25.423Z,18240
2018-11-23T11:25:25.400Z,18464
2018-11-23T11:26:25.651Z,18656
2018-11-23T11:27:25.638Z,12808
2018-11-23T11:28:25.896Z,8516
2018-11-23T11:29:25.857Z,14140
2018-11-23T11:30:25.849Z,16184
2018-11-23T11:31:25.583Z,13676
2018-11-23T11:32:25.327Z,15704
2018-11-23T11:33:25.825Z,16476
2018-11-23T11:34:25.552Z,18976
2018-11-23T11:35:25.807Z,14472
2018-11-23T11:36:25.799Z,21152
2018-11-23T11:37:25.576Z,19808
2018-11-23T11:38:25.511Z,18816
2018-11-23T11:39:25.761Z,18912
2018-11-23T11:40:25.496Z,19808
2018-11-23T11:41:25.743Z,20288
2018-11-23T11:42:25.725Z,20928
2018-11-23T11:43:25.711Z,20768
2018-11-23T11:44:25.196Z,20544
2018-11-23T11:45:25.193Z,20512
2018-11-23T11:46:25.191Z,20864
2018-11-23T11:47:25.417Z,21280
2018-11-23T11:48:24.909Z,21024
2018-11-23T11:49:25.664Z,20480
2018-11-23T11:50:25.147Z,19872
2018-11-23T11:51:25.661Z,19232
2018-11-23T11:52:25.638Z,19040
2018-11-23T11:53:25.617Z,19072
2018-11-23T11:54:25.142Z,19456
2018-11-23T11:55:25.611Z,19520
2018-11-23T11:56:25.352Z,19744
2018-11-23T11:57:25.592Z,19104
2018-11-23T11:58:25.084Z,21184
2018-11-23T11:59:25.586Z,21216
2018-11-23T12:00:25.324Z,21056
2018-11-23T12:01:25.058Z,20096
2018-11-23T12:02:25.556Z,18560
2018-11-23T12:03:25.541Z,17120
2018-11-23T12:04:25.228Z,16000
2018-11-23T12:05:25.285Z,15488
2018-11-23T12:06:25.282Z,16128
2018-11-23T12:07:25.288Z,18048
2018-11-23T12:08:25.507Z,19328
2018-11-23T12:09:25.500Z,19520
2018-11-23T12:10:25.242Z,18944
2018-11-23T12:11:25.241Z,18336
2018-11-23T12:12:25.227Z,17024
2018-11-23T12:13:25.474Z,16032
2018-11-23T12:14:24.718Z,15072
2018-11-23T12:15:24.956Z,14432
2018-11-23T12:16:26.513Z,15360
2018-11-23T12:17:25.195Z,16096
2018-11-23T12:18:24.927Z,18144
2018-11-23T12:19:24.929Z,19104
2018-11-23T12:20:25.212Z,19264
2018-11-23T12:21:25.166Z,13812
2018-11-23T12:22:25.169Z,18560
2018-11-23T12:23:25.155Z,18272
2018-11-23T12:24:25.419Z,18336
2018-11-23T12:25:25.396Z,18240
2018-11-23T12:26:24.888Z,18048
2018-11-23T12:27:25.118Z,17440
2018-11-23T12:28:25.123Z,16672
2018-11-23T12:29:25.371Z,15104
2018-11-23T12:30:25.388Z,11388
2018-11-23T12:31:25.103Z,13568
2018-11-23T12:32:25.095Z,10696
2018-11-23T12:33:25.349Z,13024
2018-11-23T12:34:25.080Z,13248
2018-11-23T12:35:24.833Z,13056
2018-11-23T12:36:25.073Z,12512
2018-11-23T12:37:25.025Z,11840
2018-11-23T12:38:25.050Z,11808
2018-11-23T12:39:25.067Z,12352
2018-11-23T12:40:25.296Z,13184
2018-11-23T12:41:25.041Z,13984
2018-11-23T12:42:24.776Z,14336
2018-11-23T12:43:25.029Z,14624
2018-11-23T12:44:24.789Z,15232
2018-11-23T12:45:25.265Z,15520
2018-11-23T12:46:25.017Z,15776
2018-11-23T12:47:24.741Z,16352
2018-11-23T12:48:24.986Z,16512
2018-11-23T12:49:24.990Z,16832
2018-11-23T12:50:24.994Z,16896
2018-11-23T12:51:25.004Z,16704
2018-11-23T12:52:24.969Z,16288
2018-11-23T12:53:24.964Z,15712
2018-11-23T12:54:25.197Z,15072
2018-11-23T12:55:24.479Z,14368
2018-11-23T12:56:24.935Z,14080
2018-11-23T12:57:24.974Z,14112
2018-11-23T12:58:25.177Z,14496
2018-11-23T12:59:24.917Z,15264
2018-11-23T13:00:24.907Z,15264
2018-11-23T13:01:24.909Z,14592
2018-11-23T13:02:24.900Z,13668
2018-11-23T13:03:24.896Z,13668
2018-11-23T13:04:24.892Z,13928
2018-11-23T13:05:25.128Z,14312
2018-11-23T13:06:24.905Z,14036
2018-11-23T13:07:25.123Z,13184
2018-11-23T13:08:25.109Z,12452
2018-11-23T13:09:25.298Z,12000
2018-11-23T13:10:24.857Z,11660
2018-11-23T13:11:24.843Z,11496
2018-11-23T13:12:24.874Z,11316
2018-11-23T13:13:24.866Z,11124
2018-11-23T13:14:25.069Z,11440
2018-11-23T13:15:24.313Z,12084
2018-11-23T13:16:25.055Z,12684
2018-11-23T13:17:24.542Z,13304
2018-11-23T13:18:25.045Z,14068
2018-11-23T13:19:25.043Z,14640
2018-11-23T13:20:25.044Z,14796
2018-11-23T13:21:24.774Z,14464
2018-11-23T13:22:24.757Z,13736
2018-11-23T13:23:24.752Z,13140
2018-11-23T13:24:24.747Z,12772
2018-11-23T13:25:24.772Z,12380
2018-11-23T13:26:24.495Z,11936
2018-11-23T13:27:24.981Z,11340
2018-11-23T13:28:24.970Z,11112
2018-11-23T13:29:24.725Z,10912
2018-11-23T13:30:24.955Z,10612
2018-11-23T13:31:24.705Z,10196
2018-11-23T13:32:24.688Z,9284
2018-11-23T13:33:24.946Z,6860
2018-11-23T13:34:24.412Z,4732
2018-11-23T13:35:24.669Z,4200
2018-11-23T13:36:24.663Z,3900
2018-11-23T13:37:24.908Z,3620
2018-11-23T13:38:24.700Z,3444
2018-11-23T13:39:24.633Z,3268
2018-11-23T13:40:24.882Z,3188
2018-11-23T13:41:24.880Z,3124
2018-11-23T13:42:24.914Z,3092
2018-11-23T13:43:24.603Z,3064
2018-11-23T13:44:24.349Z,3044
2018-11-23T13:45:24.842Z,3016
2018-11-23T13:46:24.879Z,2976
2018-11-23T13:47:24.578Z,2944
2018-11-23T13:48:27.164Z,2908
2018-11-23T13:49:24.302Z,2892
2018-11-23T13:50:24.549Z,2888
2018-11-23T13:51:24.777Z,2884
2018-11-23T13:52:24.796Z,2872
2018-11-23T13:53:24.528Z,2856
2018-11-23T13:54:23.977Z,2832
2018-11-23T13:55:24.854Z,2808